Time;durP1;ratioP1;P1;durP2;ratioP2;P2;SDS_P1;SDS_P2;PMS_P1;PMS_P2;Temp;Humidity;BMP_temperature;BMP_pressure;BME280_temperature;BME280_humidity;BME280_pressure;Samples;Min_cycle;Max_cycle;Signal;HPM_P1;HPM_P2
2023/03/14 00:00:12;;;;;;;45.13;23.10;;;26.10;99.90;;;;;;5033043;28;20014;-66
2023/03/14 00:02:39;;;;;;;40.05;25.27;;;26.10;99.90;;;;;;5013126;28;20037;-67
2023/03/14 00:05:06;;;;;;;40.38;26.23;;;26.10;99.90;;;;;;5013593;28;20386;-69
2023/03/14 00:07:36;;;;;;;46.17;28.15;;;26.10;99.90;;;;;;5013320;28;20033;-66
2023/03/14 00:10:07;;;;;;;46.05;28.45;;;26.00;99.90;;;;;;5017223;28;20030;-67
2023/03/14 00:12:34;;;;;;;52.17;27.90;;;26.10;99.90;;;;;;5016854;28;20022;-67
2023/03/14 00:15:03;;;;;;;47.15;27.02;;;26.10;99.90;;;;;;5016898;28;20072;-67
2023/03/14 00:17:30;;;;;;;44.22;26.52;;;26.10;99.90;;;;;;5016867;28;20026;-66
2023/03/14 00:19:57;;;;;;;40.70;25.67;;;26.20;99.90;;;;;;5016786;28;20040;-66
2023/03/14 00:22:23;;;;;;;47.60;26.67;;;26.20;99.90;;;;;;5017086;28;20022;-67
2023/03/14 00:24:51;;;;;;;35.85;24.52;;;26.20;99.90;;;;;;5016950;28;20046;-70
2023/03/14 00:27:17;;;;;;;36.85;26.00;;;26.10;99.90;;;;;;5016801;28;20029;-67
2023/03/14 00:29:44;;;;;;;39.70;25.92;;;26.20;99.90;;;;;;5016678;28;20084;-67
2023/03/14 00:32:10;;;;;;;35.10;24.45;;;26.20;99.90;;;;;;5016749;28;20080;-67
2023/03/14 00:34:37;;;;;;;41.08;25.08;;;26.20;99.90;;;;;;5016479;28;20037;-66
2023/03/14 00:37:03;;;;;;;43.80;25.25;;;26.20;99.90;;;;;;4999531;28;20161;-66
2023/03/14 00:39:30;;;;;;;44.95;27.15;;;26.30;99.90;;;;;;5017089;28;20022;-68
2023/03/14 00:41:56;;;;;;;45.72;26.23;;;26.30;99.90;;;;;;5016992;28;20386;-67
2023/03/14 00:44:23;;;;;;;44.22;24.20;;;26.30;99.90;;;;;;5016802;28;20557;-66
2023/03/14 00:46:50;;;;;;;42.58;27.05;;;26.40;99.90;;;;;;5016432;28;20030;-69
2023/03/14 00:49:16;;;;;;;43.30;27.20;;;26.40;99.90;;;;;;5016267;28;20032;-68
2023/03/14 00:51:43;;;;;;;46.90;26.92;;;26.40;99.90;;;;;;5016142;28;20029;-68
2023/03/14 00:54:09;;;;;;;47.25;26.80;;;26.40;99.90;;;;;;5015992;28;20052;-67
2023/03/14 00:56:36;;;;;;;40.65;26.20;;;26.40;99.90;;;;;;5016182;28;20025;-68
2023/03/14 00:59:02;;;;;;;36.47;24.55;;;26.40;99.90;;;;;;5015893;28;20022;-68
2023/03/14 01:01:28;;;;;;;43.65;25.80;;;26.50;99.90;;;;;;5016183;28;20076;-67
2023/03/14 01:03:56;;;;;;;44.17;27.02;;;26.50;99.90;;;;;;5016020;28;20105;-68
2023/03/14 01:06:24;;;;;;;45.08;26.27;;;26.50;99.90;;;;;;5015933;28;20030;-68
2023/03/14 01:08:51;;;;;;;46.53;26.77;;;26.50;99.90;;;;;;5016128;28;20026;-68
2023/03/14 01:11:25;;;;;;;44.33;26.13;;;26.50;99.90;;;;;;5015930;28;20482;-67
2023/03/14 01:13:53;;;;;;;38.05;25.73;;;26.50;99.90;;;;;;5015825;28;20663;-68
2023/03/14 01:16:21;;;;;;;41.97;26.70;;;26.50;99.90;;;;;;5016274;28;20041;-67
2023/03/14 01:18:48;;;;;;;48.83;28.95;;;26.60;99.90;;;;;;5029069;28;20030;-67
2023/03/14 01:21:18;;;;;;;40.97;28.10;;;26.60;99.90;;;;;;5035247;28;20386;-67
2023/03/14 01:23:46;;;;;;;52.80;27.20;;;26.60;99.90;;;;;;5036034;28;20026;-65
2023/03/14 01:26:15;;;;;;;44.10;27.40;;;26.60;99.90;;;;;;5035932;28;20379;-65
2023/03/14 01:28:42;;;;;;;40.10;25.48;;;26.60;99.90;;;;;;5035949;28;20033;-66
2023/03/14 01:31:10;;;;;;;44.75;25.60;;;26.70;99.90;;;;;;5035858;28;20041;-66
2023/03/14 01:33:37;;;;;;;43.75;28.45;;;26.80;99.90;;;;;;5035797;28;20095;-65
2023/03/14 01:36:05;;;;;;;46.63;27.67;;;26.90;99.90;;;;;;5035900;28;20033;-66
2023/03/14 01:38:33;;;;;;;43.47;27.70;;;27.00;99.90;;;;;;5035829;28;20032;-66
2023/03/14 01:41:01;;;;;;;40.00;25.33;;;27.00;99.90;;;;;;5035672;28;20029;-67
2023/03/14 01:43:28;;;;;;;48.95;28.00;;;27.10;99.90;;;;;;5035887;28;20402;-68
2023/03/14 01:46:05;;;;;;;51.17;31.52;;;27.20;99.90;;;;;;5035657;28;20029;-68
2023/03/14 01:48:38;;;;;;;44.85;29.10;;;27.30;99.90;;;;;;5035375;28;20060;-68
2023/03/14 01:51:08;;;;;;;45.92;29.00;;;27.40;99.90;;;;;;5035454;28;20474;-68
2023/03/14 01:53:36;;;;;;;42.10;28.30;;;27.40;99.90;;;;;;5034996;28;20028;-63
2023/03/14 01:56:03;;;;;;;42.28;27.73;;;27.50;99.90;;;;;;5034701;28;20041;-70
2023/03/14 01:58:34;;;;;;;42.33;26.15;;;27.50;99.90;;;;;;5034766;28;20033;-68
2023/03/14 02:01:03;;;;;;;53.58;32.00;;;27.60;99.90;;;;;;5034623;28;20113;-67
2023/03/14 02:03:34;;;;;;;41.45;27.95;;;27.60;99.90;;;;;;5034755;28;20026;-68
2023/03/14 02:06:07;;;;;;;42.23;28.13;;;27.60;99.90;;;;;;5034263;28;20033;-67
2023/03/14 02:08:35;;;;;;;45.80;26.52;;;27.70;99.90;;;;;;5034042;28;20036;-64
2023/03/14 02:11:02;;;;;;;40.95;24.48;;;27.70;99.90;;;;;;5032621;28;20025;-66
2023/03/14 02:13:28;;;;;;;44.30;24.38;;;27.70;99.90;;;;;;5033323;28;20394;-65
2023/03/14 02:15:55;;;;;;;34.15;21.98;;;27.70;99.90;;;;;;5033246;28;20029;-66
2023/03/14 02:18:22;;;;;;;34.97;21.10;;;27.80;99.90;;;;;;5033968;28;20151;-66
2023/03/14 02:20:59;;;;;;;45.90;31.05;;;27.80;99.90;;;;;;5034264;28;20034;-66
2023/03/14 02:23:42;;;;;;;425.40;320.45;;;27.80;99.90;;;;;;5034074;28;20485;-66
2023/03/14 02:26:20;;;;;;;175.88;114.65;;;28.00;99.90;;;;;;5034210;28;20064;-66
2023/03/14 02:28:48;;;;;;;72.07;46.10;;;28.00;99.90;;;;;;5034229;28;20022;-65
2023/03/14 02:31:15;;;;;;;187.85;109.47;;;28.00;99.90;;;;;;5033476;28;20475;-65
2023/03/14 02:33:42;;;;;;;205.95;118.50;;;28.00;99.90;;;;;;5033796;28;20021;-66
2023/03/14 02:36:13;;;;;;;62.28;32.83;;;28.10;99.90;;;;;;5033955;28;20052;-66
2023/03/14 02:39:00;;;;;;;52.28;29.33;;;28.10;99.90;;;;;;5034047;28;20032;-68
2023/03/14 02:41:28;;;;;;;37.45;21.40;;;28.10;99.90;;;;;;5026924;28;20034;-66
2023/03/14 02:43:55;;;;;;;39.08;22.35;;;28.10;99.90;;;;;;5033145;28;20032;-66
2023/03/14 02:46:22;;;;;;;33.40;20.08;;;28.10;99.90;;;;;;5033028;28;20474;-67
2023/03/14 02:49:02;;;;;;;55.28;27.20;;;28.20;99.90;;;;;;5022922;28;20036;-67
2023/03/14 02:51:29;;;;;;;39.67;23.08;;;28.40;99.90;;;;;;5022899;28;20041;-66
2023/03/14 02:53:56;;;;;;;33.33;19.23;;;28.50;99.90;;;;;;5022769;28;20033;-67
2023/03/14 02:56:23;;;;;;;30.88;17.25;;;28.40;99.90;;;;;;5024503;28;20021;-67
2023/03/14 02:58:49;;;;;;;42.17;20.27;;;28.30;99.90;;;;;;5023731;28;20021;-66
2023/03/14 03:01:16;;;;;;;35.70;18.80;;;28.30;99.90;;;;;;5030561;28;20034;-66
2023/03/14 03:03:42;;;;;;;32.50;18.73;;;28.20;99.90;;;;;;5033691;28;20017;-67
2023/03/14 03:06:09;;;;;;;38.78;19.42;;;28.20;99.90;;;;;;5033626;28;20025;-60
2023/03/14 03:08:35;;;;;;;25.30;17.20;;;28.30;99.90;;;;;;5033552;28;20018;-66
2023/03/14 03:11:02;;;;;;;29.13;17.38;;;28.40;99.90;;;;;;5033646;28;20022;-67
2023/03/14 03:13:28;;;;;;;28.80;17.05;;;28.50;99.90;;;;;;5033461;28;20083;-67
2023/03/14 03:15:55;;;;;;;30.83;16.58;;;28.50;99.90;;;;;;5033102;28;20032;-67
2023/03/14 03:18:22;;;;;;;27.35;16.60;;;28.60;99.90;;;;;;5033272;28;20061;-67
2023/03/14 03:20:48;;;;;;;31.25;16.08;;;28.60;99.90;;;;;;5033240;28;20033;-67
2023/03/14 03:23:15;;;;;;;29.65;17.30;;;28.50;99.90;;;;;;5032857;28;20071;-65
2023/03/14 03:25:41;;;;;;;31.58;18.95;;;28.60;99.90;;;;;;5033250;28;20100;-65
2023/03/14 03:28:08;;;;;;;28.33;18.88;;;28.70;99.90;;;;;;5033188;28;20038;-67
2023/03/14 03:30:38;;;;;;;35.67;19.05;;;28.60;99.90;;;;;;5032944;28;20043;-65
2023/03/14 03:33:05;;;;;;;39.08;20.05;;;28.50;99.90;;;;;;5033084;28;20132;-66
2023/03/14 03:35:32;;;;;;;38.83;21.15;;;28.50;99.90;;;;;;5033013;28;20035;-65
2023/03/14 03:37:58;;;;;;;37.92;22.13;;;28.60;99.90;;;;;;5032904;28;20083;-65
2023/03/14 03:40:25;;;;;;;37.22;21.23;;;28.50;99.90;;;;;;5033324;28;20028;-65
2023/03/14 03:42:51;;;;;;;33.92;19.48;;;28.50;99.90;;;;;;5033571;28;20441;-65
2023/03/14 03:45:18;;;;;;;32.83;20.15;;;28.60;99.90;;;;;;5037116;28;20036;-67
2023/03/14 03:47:44;;;;;;;28.92;18.45;;;28.60;99.90;;;;;;5037208;28;20078;-66
2023/03/14 03:50:11;;;;;;;35.08;19.10;;;28.70;99.90;;;;;;5037221;28;20443;-67
2023/03/14 03:52:37;;;;;;;29.73;17.35;;;28.80;99.90;;;;;;5036844;28;20052;-67
2023/03/14 03:55:05;;;;;;;32.95;19.67;;;29.00;99.90;;;;;;5036669;28;20478;-66
2023/03/14 03:57:31;;;;;;;28.83;18.27;;;29.00;99.90;;;;;;5036941;28;20021;-66
2023/03/14 03:59:58;;;;;;;34.70;17.45;;;29.00;99.90;;;;;;5036912;28;20020;-67
2023/03/14 04:02:24;;;;;;;24.15;16.15;;;29.10;99.90;;;;;;5036851;28;20025;-70
2023/03/14 04:04:51;;;;;;;27.73;17.20;;;29.10;99.90;;;;;;5036837;28;20030;-70
2023/03/14 04:07:17;;;;;;;25.30;17.50;;;29.20;99.90;;;;;;5036694;28;20029;-66
2023/03/14 04:09:44;;;;;;;32.58;18.42;;;29.30;99.90;;;;;;5036762;28;20470;-66
2023/03/14 04:12:11;;;;;;;28.73;16.85;;;29.30;99.90;;;;;;5036721;28;20111;-67
2023/03/14 04:14:37;;;;;;;32.22;17.13;;;29.50;99.90;;;;;;5036307;28;20028;-66
2023/03/14 04:17:04;;;;;;;28.15;16.30;;;29.50;99.90;;;;;;5036884;28;20029;-66
2023/03/14 04:19:30;;;;;;;27.17;15.98;;;29.60;99.90;;;;;;5036682;28;20013;-66
2023/03/14 04:21:57;;;;;;;25.83;15.93;;;29.50;99.90;;;;;;5036657;28;20021;-64
2023/03/14 04:24:23;;;;;;;25.23;15.27;;;29.60;99.90;;;;;;5036424;28;20018;-65
2023/03/14 04:26:50;;;;;;;26.83;15.77;;;29.60;99.90;;;;;;5036551;28;20482;-65
2023/03/14 04:29:17;;;;;;;30.15;16.30;;;29.70;99.90;;;;;;5036717;28;20377;-65
2023/03/14 04:31:43;;;;;;;30.38;15.85;;;29.70;99.90;;;;;;5036144;28;20087;-65
2023/03/14 04:34:10;;;;;;;23.75;15.70;;;29.90;99.90;;;;;;5036340;28;20040;-66
2023/03/14 04:36:36;;;;;;;28.80;16.08;;;29.90;99.90;;;;;;5036298;28;20422;-66
2023/03/14 04:39:04;;;;;;;29.50;16.48;;;29.90;99.90;;;;;;5036000;28;20068;-66
2023/03/14 04:41:30;;;;;;;23.17;14.82;;;30.00;99.90;;;;;;5035812;28;20538;-66
2023/03/14 04:43:57;;;;;;;26.13;15.02;;;30.00;99.90;;;;;;5035770;28;20051;-63
2023/03/14 04:46:23;;;;;;;32.15;16.95;;;30.10;99.90;;;;;;5030736;28;20029;-65
2023/03/14 04:48:50;;;;;;;26.10;13.40;;;30.10;99.90;;;;;;5026677;28;20391;-64
2023/03/14 04:51:17;;;;;;;29.08;14.95;;;30.10;99.90;;;;;;5024675;28;20029;-64
2023/03/14 04:53:43;;;;;;;23.75;14.18;;;30.10;99.90;;;;;;5026084;28;20030;-66
2023/03/14 04:56:12;;;;;;;26.73;15.75;;;30.10;99.90;;;;;;5023255;28;20154;-65
2023/03/14 04:58:39;;;;;;;21.92;14.52;;;30.10;99.90;;;;;;5023942;28;20026;-65
2023/03/14 05:01:06;;;;;;;22.35;14.30;;;30.30;99.90;;;;;;5025660;28;20036;-64
2023/03/14 05:03:33;;;;;;;30.40;15.18;;;30.30;99.90;;;;;;5025434;28;20359;-66
2023/03/14 05:06:00;;;;;;;26.25;15.02;;;30.40;99.90;;;;;;5024139;28;20018;-64
2023/03/14 05:08:27;;;;;;;21.55;15.68;;;30.30;99.90;;;;;;5025928;28;20083;-65
2023/03/14 05:10:55;;;;;;;25.27;13.75;;;30.30;99.90;;;;;;5029897;28;20022;-65
2023/03/14 05:13:22;;;;;;;24.98;13.57;;;30.30;99.90;;;;;;5026510;28;20033;-64
2023/03/14 05:15:50;;;;;;;25.42;15.05;;;30.30;99.90;;;;;;5024514;28;20479;-64
2023/03/14 05:18:18;;;;;;;24.23;14.32;;;30.30;99.90;;;;;;5025210;28;20076;-64
2023/03/14 05:20:45;;;;;;;23.45;14.25;;;30.30;99.90;;;;;;5032120;28;20467;-61
2023/03/14 05:23:11;;;;;;;26.80;14.25;;;30.30;99.90;;;;;;5025579;28;20410;-64
2023/03/14 05:25:38;;;;;;;21.35;12.88;;;30.20;99.90;;;;;;5019319;28;20026;-64
2023/03/14 05:28:04;;;;;;;26.13;14.32;;;30.10;99.90;;;;;;5018719;28;20080;-65
2023/03/14 05:30:32;;;;;;;25.45;16.02;;;30.00;99.90;;;;;;5023981;28;20029;-64
2023/03/14 05:32:58;;;;;;;35.28;16.92;;;30.00;99.90;;;;;;5025271;28;20029;-64
2023/03/14 05:35:25;;;;;;;31.50;17.80;;;29.90;99.90;;;;;;5025232;28;20018;-63
2023/03/14 05:37:51;;;;;;;30.40;17.85;;;29.90;99.90;;;;;;5023793;28;20025;-66
2023/03/14 05:40:18;;;;;;;31.38;19.33;;;29.90;99.90;;;;;;5025264;28;20082;-66
2023/03/14 05:42:44;;;;;;;27.88;20.83;;;29.90;99.90;;;;;;5025571;28;20014;-66
2023/03/14 05:45:11;;;;;;;25.23;18.65;;;29.90;99.90;;;;;;5023890;28;20073;-67
2023/03/14 05:47:38;;;;;;;29.92;18.50;;;29.90;99.90;;;;;;5025184;28;20059;-66
2023/03/14 05:50:05;;;;;;;27.45;18.58;;;30.00;99.90;;;;;;5025028;28;20526;-65
2023/03/14 05:52:31;;;;;;;26.42;16.67;;;30.00;99.90;;;;;;5026124;28;20446;-64
2023/03/14 05:54:58;;;;;;;29.25;16.52;;;30.00;99.90;;;;;;5030296;28;20056;-65
2023/03/14 05:57:24;;;;;;;27.52;16.73;;;30.00;99.90;;;;;;5025395;28;20072;-64
2023/03/14 05:59:51;;;;;;;26.02;15.75;;;30.10;99.90;;;;;;5023730;28;20191;-64
2023/03/14 06:02:17;;;;;;;31.27;18.58;;;30.10;99.90;;;;;;5025340;28;20197;-64
2023/03/14 06:04:44;;;;;;;35.13;24.95;;;30.10;99.90;;;;;;5024742;28;20022;-64
2023/03/14 06:07:11;;;;;;;31.60;16.48;;;30.10;99.90;;;;;;5023200;28;20492;-62
2023/03/14 06:09:39;;;;;;;31.13;16.13;;;30.10;99.90;;;;;;5025780;28;20025;-63
2023/03/14 06:12:06;;;;;;;23.45;14.63;;;30.10;99.90;;;;;;5024994;28;20053;-64
2023/03/14 06:14:32;;;;;;;21.77;15.07;;;30.00;99.90;;;;;;5023073;28;20471;-66
2023/03/14 06:16:59;;;;;;;25.50;14.50;;;30.00;99.90;;;;;;5024423;28;20036;-62
2023/03/14 06:19:26;;;;;;;26.42;15.05;;;29.90;99.90;;;;;;5024669;28;20021;-61
2023/03/14 06:21:52;;;;;;;25.00;15.30;;;29.90;99.90;;;;;;5023714;28;20064;-63
2023/03/14 06:24:19;;;;;;;21.77;13.35;;;29.80;99.90;;;;;;5025843;28;20097;-63
2023/03/14 06:26:45;;;;;;;23.63;14.35;;;29.80;99.90;;;;;;5024115;28;20383;-64
2023/03/14 06:29:13;;;;;;;25.25;15.75;;;29.70;99.90;;;;;;5020330;28;20045;-65
2023/03/14 06:31:39;;;;;;;26.90;15.27;;;29.70;99.90;;;;;;5016937;28;20049;-65
2023/03/14 06:34:06;;;;;;;28.35;16.65;;;29.70;99.90;;;;;;5015535;28;20143;-65
2023/03/14 06:36:32;;;;;;;29.75;16.38;;;29.80;99.90;;;;;;5013966;28;20034;-65
2023/03/14 06:38:59;;;;;;;25.95;16.20;;;29.90;99.90;;;;;;5013568;28;20026;-65
2023/03/14 06:41:26;;;;;;;28.00;15.43;;;29.80;99.90;;;;;;5014088;28;20442;-64
2023/03/14 06:43:53;;;;;;;26.17;15.43;;;29.60;99.90;;;;;;5013907;28;20036;-64
2023/03/14 06:46:19;;;;;;;27.60;17.08;;;29.30;99.90;;;;;;5013862;28;20044;-64
2023/03/14 06:48:46;;;;;;;25.30;15.07;;;29.10;99.90;;;;;;5013926;28;20061;-65
2023/03/14 06:51:13;;;;;;;28.05;16.60;;;28.90;99.90;;;;;;5013864;28;20030;-65
2023/03/14 06:53:39;;;;;;;24.80;18.15;;;28.70;99.90;;;;;;5013722;28;20025;-64
2023/03/14 06:56:06;;;;;;;29.95;18.30;;;28.60;99.90;;;;;;5013624;28;20050;-65
2023/03/14 06:58:33;;;;;;;27.25;15.95;;;28.40;99.90;;;;;;5013868;28;20387;-65
2023/03/14 07:00:59;;;;;;;27.90;16.75;;;28.40;99.90;;;;;;5013661;28;20026;-65
2023/03/14 07:03:26;;;;;;;27.58;17.55;;;28.40;99.90;;;;;;5013718;28;20391;-65
2023/03/14 07:05:53;;;;;;;27.83;18.08;;;28.40;99.90;;;;;;5013917;28;20160;-65
2023/03/14 07:08:20;;;;;;;29.52;18.23;;;28.50;99.90;;;;;;5013465;28;20026;-65
2023/03/14 07:10:46;;;;;;;32.67;19.52;;;28.50;99.90;;;;;;5013694;28;20034;-65
2023/03/14 07:13:13;;;;;;;30.92;21.00;;;28.60;99.90;;;;;;5013538;28;20033;-65
2023/03/14 07:15:39;;;;;;;32.22;21.08;;;28.70;99.90;;;;;;5013345;28;20029;-66
2023/03/14 07:18:06;;;;;;;36.22;23.60;;;28.80;99.90;;;;;;5012932;28;20041;-66
2023/03/14 07:20:33;;;;;;;32.30;21.70;;;28.80;99.90;;;;;;5013603;28;20041;-66
2023/03/14 07:23:00;;;;;;;29.33;20.00;;;28.90;99.90;;;;;;5013665;28;20049;-65
2023/03/14 07:25:26;;;;;;;34.05;20.70;;;29.00;99.90;;;;;;5013295;28;20517;-65
2023/03/14 07:27:53;;;;;;;33.88;20.30;;;29.10;99.90;;;;;;5013585;28;20037;-66
2023/03/14 07:30:19;;;;;;;26.88;18.60;;;29.20;99.90;;;;;;5013340;28;20036;-65
2023/03/14 07:32:46;;;;;;;31.15;18.25;;;29.40;99.90;;;;;;5015629;28;20434;-64
2023/03/14 07:35:12;;;;;;;33.70;23.23;;;29.40;99.90;;;;;;5032529;28;20029;-64
2023/03/14 07:37:39;;;;;;;29.05;17.88;;;29.50;99.90;;;;;;5024553;28;20025;-64
2023/03/14 07:40:07;;;;;;;26.73;15.95;;;29.60;99.90;;;;;;5032790;28;20030;-64
2023/03/14 07:42:33;;;;;;;28.05;19.05;;;29.70;99.90;;;;;;5032955;28;20026;-64
2023/03/14 07:45:00;;;;;;;29.08;19.40;;;29.70;99.90;;;;;;5033080;28;20524;-64
2023/03/14 07:47:26;;;;;;;29.08;18.98;;;29.70;99.90;;;;;;5032805;28;20075;-65
2023/03/14 07:49:52;;;;;;;25.13;16.30;;;29.80;99.90;;;;;;5033023;28;20024;-64
2023/03/14 07:52:19;;;;;;;22.35;16.10;;;29.80;99.90;;;;;;5033102;28;20505;-64
2023/03/14 07:54:45;;;;;;;25.92;15.98;;;29.80;99.90;;;;;;5032604;28;20049;-63
2023/03/14 07:57:12;;;;;;;23.00;14.48;;;29.80;99.90;;;;;;5033069;28;20021;-63
2023/03/14 07:59:38;;;;;;;23.67;14.50;;;29.70;99.90;;;;;;5032806;28;20091;-64
2023/03/14 08:02:10;;;;;;;25.42;14.10;;;29.80;99.90;;;;;;5032767;28;20490;-65
2023/03/14 08:04:37;;;;;;;24.00;13.95;;;29.80;99.90;;;;;;5032820;28;20029;-65
2023/03/14 08:07:03;;;;;;;19.42;13.75;;;29.80;99.90;;;;;;5032950;28;20037;-66
2023/03/14 08:09:30;;;;;;;21.60;13.05;;;29.80;99.90;;;;;;5032614;28;20386;-64
2023/03/14 08:11:56;;;;;;;26.25;14.15;;;29.80;99.90;;;;;;5032058;28;20505;-65
2023/03/14 08:14:24;;;;;;;20.63;12.98;;;29.80;99.90;;;;;;5032675;28;20112;-65
2023/03/14 08:16:51;;;;;;;19.42;13.85;;;29.80;99.90;;;;;;5032489;28;20053;-66
2023/03/14 08:19:18;;;;;;;20.52;13.98;;;29.80;99.90;;;;;;5032376;28;20053;-65
2023/03/14 08:21:44;;;;;;;27.88;14.65;;;29.80;99.90;;;;;;5032746;28;20021;-65
2023/03/14 08:24:11;;;;;;;23.45;15.32;;;29.80;99.90;;;;;;5032411;28;20045;-64
2023/03/14 08:26:37;;;;;;;23.95;13.00;;;29.80;99.90;;;;;;5032624;28;20024;-66
2023/03/14 08:29:04;;;;;;;24.27;13.82;;;29.80;99.90;;;;;;5033507;28;20025;-66
2023/03/14 08:31:31;;;;;;;21.63;13.68;;;29.80;99.90;;;;;;5036039;28;20029;-65
2023/03/14 08:34:00;;;;;;;27.90;14.80;;;29.80;99.90;;;;;;5036157;28;20076;-66
2023/03/14 08:36:26;;;;;;;19.73;13.80;;;29.80;99.90;;;;;;5036214;28;20024;-64
2023/03/14 08:38:53;;;;;;;22.40;15.23;;;29.80;99.90;;;;;;5035897;28;20029;-65
2023/03/14 08:41:19;;;;;;;24.85;14.23;;;29.80;99.90;;;;;;5035460;28;20037;-65
2023/03/14 08:43:46;;;;;;;27.58;14.32;;;29.80;99.90;;;;;;5034198;28;20010;-64
2023/03/14 08:46:13;;;;;;;24.77;14.95;;;29.80;99.90;;;;;;5033998;28;20032;-65
2023/03/14 08:48:39;;;;;;;24.67;14.85;;;29.80;99.90;;;;;;5033443;28;20502;-64
2023/03/14 08:51:14;;;;;;;24.98;14.55;;;29.90;99.90;;;;;;5035024;28;20061;-63
2023/03/14 08:53:41;;;;;;;20.75;14.80;;;29.90;99.90;;;;;;5035033;28;20087;-65
2023/03/14 08:56:09;;;;;;;25.60;16.77;;;29.90;99.90;;;;;;5035109;28;20049;-65
2023/03/14 08:58:37;;;;;;;29.33;17.40;;;29.90;99.90;;;;;;5035936;28;20443;-69
2023/03/14 09:01:05;;;;;;;33.15;19.67;;;29.90;99.90;;;;;;5035592;28;20029;-64
2023/03/14 09:03:32;;;;;;;22.90;16.73;;;29.90;99.90;;;;;;5036110;28;20380;-65
2023/03/14 09:06:04;;;;;;;24.58;16.67;;;29.90;99.90;;;;;;5035135;28;20048;-65
2023/03/14 09:08:31;;;;;;;21.75;15.27;;;30.00;99.90;;;;;;5035696;28;20033;-65
2023/03/14 09:10:57;;;;;;;25.60;15.50;;;30.10;99.90;;;;;;5035195;28;20025;-65
2023/03/14 09:13:24;;;;;;;27.90;16.27;;;30.10;99.90;;;;;;5035598;28;20049;-64
2023/03/14 09:15:59;;;;;;;28.27;15.38;;;30.10;99.90;;;;;;5035290;28;20046;-65
2023/03/14 09:18:26;;;;;;;24.92;16.13;;;30.10;99.90;;;;;;5035348;28;20025;-65
2023/03/14 09:20:52;;;;;;;27.50;16.45;;;30.00;99.90;;;;;;5035281;28;20476;-64
2023/03/14 09:23:19;;;;;;;25.17;15.55;;;30.00;99.90;;;;;;5035342;28;20545;-65
2023/03/14 09:25:45;;;;;;;20.90;14.82;;;30.00;99.90;;;;;;5035476;28;20026;-65
2023/03/14 09:28:12;;;;;;;34.83;16.40;;;30.00;99.90;;;;;;5035258;28;20021;-64
2023/03/14 09:30:39;;;;;;;23.63;15.50;;;30.00;99.90;;;;;;5035442;28;20037;-66
2023/03/14 09:33:06;;;;;;;24.77;14.75;;;29.90;99.90;;;;;;5035143;28;20487;-66
2023/03/14 09:35:34;;;;;;;20.98;14.88;;;29.90;99.90;;;;;;5034577;28;20034;-65
2023/03/14 09:38:01;;;;;;;27.00;13.82;;;29.90;99.90;;;;;;5035020;28;20489;-64
2023/03/14 09:40:34;;;;;;;22.35;14.77;;;29.80;99.90;;;;;;5033043;28;20071;-64
2023/03/14 09:43:00;;;;;;;29.60;15.40;;;29.80;99.90;;;;;;5034847;28;20029;-64
2023/03/14 09:45:33;;;;;;;24.90;16.02;;;29.90;99.90;;;;;;5034934;28;20100;-64
2023/03/14 09:48:01;;;;;;;25.70;17.27;;;29.90;99.90;;;;;;5031624;28;20030;-64
2023/03/14 09:50:48;;;;;;;25.52;16.08;;;29.90;99.90;;;;;;5023362;28;20075;-63
2023/03/14 09:53:18;;;;;;;27.35;16.65;;;29.80;99.90;;;;;;5022613;28;20030;-65
2023/03/14 09:55:51;;;;;;;23.63;15.07;;;29.80;99.90;;;;;;5034524;28;20045;-64
2023/03/14 09:58:22;;;;;;;31.60;18.20;;;29.80;99.90;;;;;;5034752;28;20022;-65
2023/03/14 10:00:50;;;;;;;37.88;21.17;;;29.90;99.90;;;;;;5034322;28;20022;-64
2023/03/14 10:03:25;;;;;;;36.60;20.23;;;29.90;99.90;;;;;;5034525;28;20026;-65
2023/03/14 10:05:53;;;;;;;32.28;19.73;;;29.90;99.90;;;;;;5034561;28;20025;-64
2023/03/14 10:08:19;;;;;;;35.13;19.17;;;29.90;99.90;;;;;;5034457;28;20095;-64
2023/03/14 10:10:46;;;;;;;27.35;18.75;;;29.90;99.90;;;;;;5034807;28;20029;-64
2023/03/14 10:13:15;;;;;;;30.17;19.45;;;29.90;99.90;;;;;;5034325;28;20029;-64
2023/03/14 10:15:43;;;;;;;29.00;19.02;;;29.90;99.90;;;;;;5033891;28;20415;-65
2023/03/14 10:18:14;;;;;;;26.58;18.08;;;29.80;99.90;;;;;;5034467;28;20045;-65
2023/03/14 10:20:44;;;;;;;25.95;17.60;;;29.80;99.90;;;;;;5034508;28;20026;-64
2023/03/14 10:23:11;;;;;;;31.08;21.92;;;29.80;99.90;;;;;;5033978;28;20108;-64
2023/03/14 10:25:41;;;;;;;38.47;22.55;;;29.80;99.90;;;;;;5033840;28;20486;-64
2023/03/14 10:28:26;;;;;;;40.88;25.80;;;29.80;99.90;;;;;;5034313;28;20079;-63
2023/03/14 10:30:53;;;;;;;47.42;25.95;;;29.80;99.90;;;;;;5034176;28;20026;-63
2023/03/14 10:33:23;;;;;;;42.97;24.90;;;29.80;99.90;;;;;;5034097;28;20032;-64
2023/03/14 10:35:58;;;;;;;38.85;21.33;;;29.80;99.90;;;;;;5033742;28;20033;-64
2023/03/14 10:38:28;;;;;;;28.27;18.88;;;29.80;99.90;;;;;;5034015;28;20485;-64
2023/03/14 10:40:57;;;;;;;28.92;17.38;;;29.80;99.90;;;;;;5033302;28;20482;-64
2023/03/14 10:43:27;;;;;;;26.63;17.40;;;29.80;99.90;;;;;;5033396;28;20108;-65
2023/03/14 10:45:58;;;;;;;24.25;16.48;;;29.70;99.90;;;;;;5033258;28;20041;-65
2023/03/14 10:48:37;;;;;;;32.33;18.23;;;29.70;99.90;;;;;;5033520;28;20034;-65
2023/03/14 10:51:07;;;;;;;36.85;19.33;;;29.70;99.90;;;;;;5033834;28;20544;-65
2023/03/14 10:53:39;;;;;;;33.97;19.27;;;29.70;99.90;;;;;;5032662;28;20033;-65
2023/03/14 10:56:06;;;;;;;31.77;20.52;;;29.60;99.90;;;;;;5015873;28;20517;-65
2023/03/14 10:58:40;;;;;;;45.45;22.73;;;29.60;99.90;;;;;;5033614;28;20389;-65
2023/03/14 11:01:22;;;;;;;36.50;24.30;;;29.50;99.90;;;;;;5033546;28;20029;-66
2023/03/14 11:03:52;;;;;;;;;;;29.50;99.90;;;;;;5033807;28;20051;-65
2023/03/14 11:06:28;;;;;;;34.88;22.88;;;29.50;99.90;;;;;;5033334;28;19909;-65
2023/03/14 11:09:05;;;;;;;33.15;22.70;;;29.50;99.90;;;;;;5033381;28;20087;-65
2023/03/14 11:11:32;;;;;;;35.67;23.55;;;29.50;99.90;;;;;;5033273;28;20081;-64
2023/03/14 11:13:59;;;;;;;55.25;36.60;;;29.50;99.90;;;;;;5033429;28;20561;-64
2023/03/14 11:16:50;;;;;;;74.18;45.55;;;29.50;99.90;;;;;;5033519;28;20030;-63
2023/03/14 11:19:57;;;;;;;102.17;59.30;;;29.40;99.90;;;;;;5033174;28;20018;-64
2023/03/14 11:22:38;;;;;;;75.43;45.42;;;29.50;99.90;;;;;;5033032;28;20057;-64
2023/03/14 11:25:35;;;;;;;83.97;45.78;;;29.40;99.90;;;;;;5033055;28;20095;-66
2023/03/14 11:28:19;;;;;;;86.20;55.00;;;29.50;99.90;;;;;;5033391;28;20021;-65
2023/03/14 11:31:06;;;;;;;81.00;48.92;;;29.40;99.90;;;;;;5033277;28;20021;-64
2023/03/14 11:33:49;;;;;;;65.82;41.15;;;29.40;99.90;;;;;;5026809;28;20033;-64
2023/03/14 11:36:22;;;;;;;71.28;42.95;;;29.30;99.90;;;;;;5033112;28;20064;-65
2023/03/14 11:38:50;;;;;;;72.43;43.45;;;29.40;99.90;;;;;;5033092;28;20398;-65
2023/03/14 11:41:39;;;;;;;74.43;45.33;;;29.40;99.90;;;;;;5033151;28;20025;-66
2023/03/14 11:44:19;;;;;;;70.57;45.60;;;29.40;99.90;;;;;;5033178;28;20029;-64
2023/03/14 11:47:11;;;;;;;78.45;46.53;;;29.40;99.90;;;;;;5030019;28;20058;-63
2023/03/14 11:49:50;;;;;;;72.63;48.45;;;29.40;99.90;;;;;;5021825;28;20054;-65
2023/03/14 11:52:23;;;;;;;79.07;52.08;;;29.40;99.90;;;;;;5021542;28;20049;-65
2023/03/14 11:54:59;;;;;;;88.57;56.63;;;29.30;99.90;;;;;;5020556;28;20041;-66
2023/03/14 11:57:26;;;;;;;78.10;49.83;;;29.20;99.90;;;;;;5021148;28;20049;-64
2023/03/14 12:00:16;;;;;;;73.47;45.35;;;29.20;99.90;;;;;;5021293;28;20409;-66
2023/03/14 12:03:05;;;;;;;63.75;41.35;;;29.20;99.90;;;;;;5028024;28;20052;-66
2023/03/14 12:05:54;;;;;;;68.93;44.97;;;29.30;99.90;;;;;;5031404;28;20500;-67
2023/03/14 12:08:32;;;;;;;67.63;45.58;;;29.20;99.90;;;;;;5028687;28;20029;-66
2023/03/14 12:11:04;;;;;;;80.53;55.83;;;29.20;99.90;;;;;;5024416;28;20091;-65
2023/03/14 12:13:36;;;;;;;90.85;56.55;;;29.10;99.90;;;;;;5016874;28;20033;-64
2023/03/14 12:16:07;;;;;;;84.38;51.58;;;29.10;99.90;;;;;;5053995;22;20129;-66
2023/03/14 12:18:38;;;;;;;66.85;41.70;;;29.00;99.90;;;;;;5036276;28;20026;-65
2023/03/14 12:21:08;;;;;;;62.15;37.03;;;29.00;99.90;;;;;;5033359;28;20032;-65
2023/03/14 12:23:48;;;;;;;61.30;38.45;;;29.00;99.90;;;;;;5031137;28;20087;-68
2023/03/14 12:26:17;;;;;;;61.20;39.13;;;29.00;99.90;;;;;;5029307;28;20056;-68
2023/03/14 12:28:49;;;;;;;58.42;36.13;;;29.00;99.90;;;;;;5032452;28;20441;-68
2023/03/14 12:31:37;;;;;;;51.25;32.15;;;29.00;99.90;;;;;;5029253;28;20096;-67
2023/03/14 12:34:23;;;;;;;53.97;30.20;;;28.90;99.90;;;;;;5026231;28;20380;-67
2023/03/14 12:37:02;;;;;;;54.47;33.65;;;28.90;99.90;;;;;;5025332;28;20080;-67